createdAt,value
2023-05-11T00:01:24.032Z,11.43
2023-05-11T00:06:26.298Z,11.43
2023-05-11T00:11:28.259Z,11.38
2023-05-11T00:16:30.318Z,11.35
2023-05-11T00:21:32.373Z,11.35
2023-05-11T00:26:34.208Z,11.35
2023-05-11T00:31:36.032Z,11.31
2023-05-11T00:36:41.327Z,11.31
2023-05-11T00:41:43.676Z,11.28
2023-05-11T00:46:45.594Z,11.28
2023-05-11T00:51:47.492Z,11.28
2023-05-11T00:56:49.401Z,11.23
2023-05-11T01:01:51.596Z,11.24
2023-05-11T01:07:13.781Z,11.26
2023-05-11T01:12:30.883Z,11.28
2023-05-11T01:18:06.300Z,11.23
2023-05-11T01:23:08.231Z,11.24
2023-05-11T01:28:55.994Z,11.19
2023-05-11T01:34:03.939Z,11.20
2023-05-11T01:39:10.093Z,11.21
2023-05-11T01:44:13.929Z,11.13
2023-05-11T01:49:17.958Z,11.11
2023-05-11T01:54:22.099Z,11.14
2023-05-11T01:59:26.529Z,11.15
2023-05-11T02:04:30.158Z,11.13
2023-05-11T02:09:34.861Z,11.14
2023-05-11T02:14:38.463Z,11.17
2023-05-11T02:19:44.128Z,11.12
2023-05-11T02:24:47.967Z,11.13
2023-05-11T02:29:49.828Z,11.15
2023-05-11T02:35:02.058Z,11.17
2023-05-11T02:40:08.749Z,11.12
2023-05-11T02:45:14.474Z,11.13
2023-05-11T02:50:18.911Z,11.10
2023-05-11T02:55:22.838Z,11.04
2023-05-11T03:00:25.107Z,11.06
2023-05-11T03:05:27.397Z,11.05
2023-05-11T03:10:29.952Z,11.03
2023-05-11T03:15:33.132Z,11.07
2023-05-11T03:20:40.691Z,11.05
2023-05-11T03:25:44.148Z,11.06
2023-05-11T03:30:48.210Z,11.09
2023-05-11T03:35:54.213Z,11.13
2023-05-11T03:40:59.275Z,11.13
2023-05-11T03:46:03.894Z,11.11
2023-05-11T03:51:06.428Z,11.13
2023-05-11T03:56:08.658Z,11.10
2023-05-11T04:01:13.222Z,11.16
2023-05-11T04:06:16.864Z,11.24
2023-05-11T04:11:21.746Z,11.26
2023-05-11T04:16:23.601Z,11.29
2023-05-11T04:21:25.515Z,11.28
2023-05-11T04:26:27.388Z,11.28
2023-05-11T04:31:30.570Z,11.26
2023-05-11T04:36:33.087Z,11.31
2023-05-11T04:41:34.968Z,11.32
2023-05-11T04:46:41.075Z,11.35
2023-05-11T04:51:42.993Z,11.40
2023-05-11T04:56:45.159Z,11.57
2023-05-11T05:01:47.068Z,11.44
2023-05-11T05:06:48.904Z,11.49
2023-05-11T05:11:51.143Z,11.57
2023-05-11T05:16:54.629Z,11.59
2023-05-11T05:21:57.021Z,11.63
2023-05-11T05:26:59.720Z,11.71
2023-05-11T05:32:02.075Z,11.83
2023-05-11T05:37:04.684Z,11.94
2023-05-11T05:42:07.194Z,11.96
2023-05-11T05:47:10.080Z,12.10
2023-05-11T05:52:13.033Z,12.29
2023-05-11T05:57:16.180Z,12.48
2023-05-11T06:02:19.679Z,12.63
2023-05-11T06:07:21.631Z,13.02
2023-05-11T06:12:23.540Z,13.04
2023-05-11T06:17:28.503Z,12.98
2023-05-11T06:22:30.565Z,12.94
2023-05-11T06:27:32.999Z,13.17
2023-05-11T06:32:35.215Z,13.65
2023-05-11T06:37:38.126Z,13.46
2023-05-11T06:42:40.139Z,13.45
2023-05-11T06:47:44.728Z,13.44
2023-05-11T06:52:46.587Z,13.44
2023-05-11T06:57:48.688Z,13.77
2023-05-11T07:02:50.641Z,13.64
2023-05-11T07:07:52.501Z,14.01
2023-05-11T07:12:54.347Z,14.42
2023-05-11T07:17:56.237Z,14.47
2023-05-11T07:23:01.918Z,15.25
2023-05-11T07:28:03.736Z,15.77
2023-05-11T07:33:06.718Z,15.80
2023-05-11T07:38:11.904Z,15.90
2023-05-11T07:43:13.781Z,16.14
2023-05-11T07:48:15.661Z,16.28
2023-05-11T07:53:17.679Z,16.44
2023-05-11T07:58:19.489Z,16.80
2023-05-11T08:03:21.665Z,16.64
2023-05-11T08:08:25.164Z,16.88
2023-05-11T08:13:27.161Z,16.65
2023-05-11T08:18:29.656Z,16.51
2023-05-11T08:23:31.807Z,16.92
2023-05-11T08:28:33.674Z,17.40
2023-05-11T08:33:38.303Z,17.04
2023-05-11T08:38:40.674Z,16.86
2023-05-11T08:43:46.032Z,17.43
2023-05-11T08:48:48.800Z,17.65
2023-05-11T08:53:50.769Z,18.44
2023-05-11T08:58:57.803Z,17.98
2023-05-11T09:03:59.822Z,17.63
2023-05-11T09:09:01.883Z,18.23
2023-05-11T09:14:03.752Z,18.63
2023-05-11T09:19:06.417Z,18.93
2023-05-11T09:24:11.543Z,19.11
2023-05-11T09:29:13.367Z,19.52
2023-05-11T09:34:20.149Z,18.87
2023-05-11T09:39:43.942Z,19.17
2023-05-11T09:44:49.360Z,19.92
2023-05-11T09:49:51.179Z,18.97
2023-05-11T09:54:53.177Z,19.56
2023-05-11T09:59:56.732Z,19.85
2023-05-11T10:05:01.566Z,19.71
2023-05-11T10:10:06.058Z,19.83
2023-05-11T10:15:09.904Z,19.75
2023-05-11T10:20:12.896Z,19.51
2023-05-11T10:25:15.978Z,19.57
2023-05-11T10:30:18.474Z,20.34
2023-05-11T10:35:21.549Z,20.59
2023-05-11T10:40:23.849Z,19.91
2023-05-11T10:45:28.776Z,19.93
2023-05-11T10:50:30.605Z,20.58
2023-05-11T10:55:46.901Z,21.96
2023-05-11T11:01:18.815Z,21.27
2023-05-11T11:06:29.360Z,19.44
2023-05-11T11:11:36.300Z,18.77
2023-05-11T11:16:39.114Z,21.64
2023-05-11T11:21:42.987Z,24.39
2023-05-11T11:26:50.498Z,22.24
2023-05-11T11:31:52.497Z,23.44
2023-05-11T11:37:06.553Z,21.89
2023-05-11T11:42:31.141Z,21.87
2023-05-11T11:47:33.065Z,20.24
2023-05-11T11:52:34.988Z,19.66
2023-05-11T11:57:44.130Z,20.25
2023-05-11T12:02:46.289Z,22.11
2023-05-11T12:07:52.672Z,23.69
2023-05-11T12:12:55.166Z,23.31
2023-05-11T12:17:57.177Z,21.54
2023-05-11T12:22:59.072Z,19.23
2023-05-11T12:28:02.331Z,18.11
2023-05-11T12:33:04.719Z,17.59
2023-05-11T12:38:10.751Z,17.60
2023-05-11T12:43:18.128Z,17.83
2023-05-11T12:48:20.024Z,18.11
2023-05-11T12:53:22.665Z,19.55
2023-05-11T12:58:24.586Z,20.64
2023-05-11T13:03:28.572Z,20.13
2023-05-11T13:08:30.591Z,21.55
2023-05-11T13:13:32.590Z,22.14
2023-05-11T13:18:34.483Z,22.67
2023-05-11T13:23:37.047Z,22.53
2023-05-11T13:28:38.917Z,21.54
2023-05-11T13:33:40.814Z,20.20
2023-05-11T13:38:43.306Z,19.53
2023-05-11T13:43:45.628Z,19.12
2023-05-11T13:48:47.811Z,18.52
2023-05-11T13:53:49.704Z,18.04
2023-05-11T13:58:51.645Z,17.85
2023-05-11T14:03:54.413Z,17.78
2023-05-11T14:08:56.491Z,17.81
2023-05-11T14:13:58.345Z,18.12
2023-05-11T14:19:00.289Z,18.50
2023-05-11T14:24:11.492Z,18.26
2023-05-11T14:29:14.330Z,18.43
2023-05-11T14:34:16.757Z,18.83
2023-05-11T14:39:18.587Z,18.35
2023-05-11T14:44:23.679Z,18.17
2023-05-11T14:49:25.509Z,18.06
2023-05-11T14:54:27.311Z,18.13
2023-05-11T14:59:29.162Z,18.11
2023-05-11T15:04:31.077Z,17.89
2023-05-11T15:09:32.888Z,17.65
2023-05-11T15:14:34.753Z,17.55
2023-05-11T15:19:36.675Z,17.32
2023-05-11T15:24:38.937Z,17.25
2023-05-11T15:29:40.867Z,17.23
2023-05-11T15:34:58.081Z,17.21
2023-05-11T15:40:01.485Z,17.31
2023-05-11T15:45:06.348Z,17.45
2023-05-11T15:50:09.353Z,17.43
2023-05-11T15:55:11.288Z,17.70
2023-05-11T16:00:14.042Z,18.04
2023-05-11T16:05:15.911Z,18.00
2023-05-11T16:10:17.853Z,18.00
2023-05-11T16:15:20.007Z,17.65
2023-05-11T16:20:22.166Z,17.57
2023-05-11T16:25:24.216Z,17.75
2023-05-11T16:30:26.187Z,17.58
2023-05-11T16:35:28.287Z,17.59
2023-05-11T16:40:30.163Z,17.43
2023-05-11T16:45:31.986Z,17.47
2023-05-11T16:50:33.855Z,17.29
2023-05-11T16:55:35.683Z,17.25
2023-05-11T17:00:37.515Z,17.11
2023-05-11T17:05:39.451Z,17.07
2023-05-11T17:10:41.600Z,17.00
2023-05-11T17:15:43.473Z,16.93
2023-05-11T17:20:45.398Z,16.77
2023-05-11T17:25:47.669Z,16.60
2023-05-11T17:30:52.893Z,16.47
2023-05-11T17:35:54.812Z,16.41
2023-05-11T17:40:59.753Z,16.29
2023-05-11T17:46:04.141Z,16.13
2023-05-11T17:51:06.128Z,16.06
2023-05-11T17:56:09.994Z,15.96
2023-05-11T18:01:16.712Z,15.87
2023-05-11T18:06:18.604Z,15.90
2023-05-11T18:11:21.335Z,15.74
2023-05-11T18:16:23.301Z,15.63
2023-05-11T18:21:27.422Z,15.61
2023-05-11T18:26:29.456Z,15.56
2023-05-11T18:31:31.741Z,15.44
2023-05-11T18:36:33.637Z,15.43
2023-05-11T18:41:35.520Z,15.25
2023-05-11T18:46:37.464Z,15.12
2023-05-11T18:51:39.311Z,15.03
2023-05-11T18:56:41.211Z,15.01
2023-05-11T19:01:47.886Z,14.99
2023-05-11T19:06:50.480Z,14.86
2023-05-11T19:11:52.313Z,14.68
2023-05-11T19:16:54.320Z,14.58
2023-05-11T19:21:56.302Z,14.53
2023-05-11T19:27:06.498Z,14.51
2023-05-11T19:32:09.851Z,14.48
2023-05-11T19:37:11.737Z,14.40
2023-05-11T19:42:13.565Z,14.25
2023-05-11T19:47:15.789Z,14.21
2023-05-11T19:52:17.674Z,14.19
2023-05-11T19:57:19.900Z,14.07
2023-05-11T20:02:21.793Z,13.96
2023-05-11T20:07:23.978Z,13.78
2023-05-11T20:12:25.904Z,13.66
2023-05-11T20:17:27.757Z,13.63
2023-05-11T20:22:32.281Z,13.48
2023-05-11T20:27:34.202Z,13.31
2023-05-11T20:32:37.405Z,13.16
2023-05-11T20:37:39.864Z,13.05
2023-05-11T20:42:41.681Z,12.91
2023-05-11T20:47:43.521Z,12.81
2023-05-11T20:52:45.363Z,12.67
2023-05-11T20:57:47.260Z,12.54
2023-05-11T21:02:49.234Z,12.40
2023-05-11T21:07:51.208Z,12.30
2023-05-11T21:12:53.315Z,12.17
2023-05-11T21:17:55.316Z,12.04
2023-05-11T21:22:57.202Z,11.98
2023-05-11T21:28:00.865Z,12.11
2023-05-11T21:33:02.912Z,11.96
2023-05-11T21:38:04.792Z,11.71
2023-05-11T21:43:08.225Z,11.32
2023-05-11T21:48:11.382Z,10.95
2023-05-11T21:53:13.262Z,10.63
2023-05-11T21:58:15.086Z,10.51
2023-05-11T22:03:17.158Z,10.30
2023-05-11T22:08:19.040Z,10.18
2023-05-11T22:13:21.482Z,10.12
2023-05-11T22:18:23.369Z,10.07
2023-05-11T22:23:25.298Z,10.05
2023-05-11T22:28:33.630Z,9.98
2023-05-11T22:33:35.291Z,9.90
2023-05-11T22:38:38.095Z,9.76
2023-05-11T22:43:39.746Z,9.53
2023-05-11T22:48:41.478Z,9.33
2023-05-11T22:53:44.542Z,9.12
2023-05-11T22:58:46.231Z,8.92
2023-05-11T23:03:47.822Z,8.73
2023-05-11T23:08:49.436Z,8.60
2023-05-11T23:13:51.064Z,8.63
2023-05-11T23:18:52.759Z,8.58
2023-05-11T23:23:54.398Z,8.43
2023-05-11T23:28:56.083Z,8.34
2023-05-11T23:33:57.869Z,8.31
2023-05-11T23:38:59.583Z,8.36
2023-05-11T23:44:01.318Z,8.48
2023-05-11T23:49:03.407Z,8.63
2023-05-11T23:54:05.093Z,8.83
2023-05-11T23:59:06.764Z,9.00
